Stations météo

réclame
Mon MeteoGroup
Concordia Sagittaria, Italie (16107): Température de l'air & dewpoint: 12.10.2017 14:00:00 - 18.10.2017 14:00:00 (CEST)Concordia Sagittaria, Italie (16107): Vitesse du vent: 12.10.2017 14:00:00 - 18.10.2017 14:00:00 (CEST)Concordia Sagittaria, Italie (16107): Direction du vent: 12.10.2017 14:00:00 - 18.10.2017 14:00:00 (CEST)Concordia Sagittaria, Italie (16107): reduced air pressure: 12.10.2017 14:00:00 - 18.10.2017 14:00:00 (CEST)Concordia Sagittaria, Italie (16107): Quantités de précipitations: 12.10.2017 14:00:00 - 18.10.2017 14:00:00 (CEST)
Date & Time tt [°C] td [°C] ff [km/h] ff [knt] dd ppp [hPa] rr [mm]
18.10.2017 14:00:00 - - - - - - -
18.10.2017 13:00:00 15,1 13,4 5 3 S 1025,1 -
18.10.2017 12:00:00 14,7 13,0 4 2 WSW 1025,5 -
18.10.2017 11:00:00 14,0 12,4 4 2 S 1025,5 -
18.10.2017 10:00:00 13,7 12,2 4 2 NNW 1025,5 -
18.10.2017 09:00:00 13,1 11,6 4 2 NNW 1025,5 -
18.10.2017 08:00:00 12,9 11,5 4 2 NNW 1025,0 0,0
18.10.2017 07:00:00 13,1 11,6 2 1 NW 1025,2 -
18.10.2017 06:00:00 13,0 11,5 5 3 NNW 1025,4 -
18.10.2017 05:00:00 13,1 11,6 2 1 ENE 1025,6 -
18.10.2017 04:00:00 12,9 11,5 4 2 E 1026,1 -
18.10.2017 03:00:00 12,5 11,1 0 0 N 1026,5 -
18.10.2017 02:00:00 12,3 10,9 4 2 ENE 1026,8 0,0
18.10.2017 01:00:00 12,7 11,3 2 1 ESE 1027,0 -
18.10.2017 00:00:00 12,5 11,1 4 2 NE 1027,5 -
17.10.2017 23:00:00 12,5 10,9 0 0 N 1027,7 -
17.10.2017 22:00:00 12,8 11,2 2 1 SSE 1027,6 -
17.10.2017 21:00:00 13,1 11,5 4 2 SE 1027,7 -
17.10.2017 20:00:00 13,2 11,6 4 2 ESE 1027,9 0,0
17.10.2017 19:00:00 15,2 13,3 5 3 SE 1027,8 -
17.10.2017 18:00:00 17,7 14,5 4 2 SE 1027,7 -
17.10.2017 17:00:00 19,6 15,6 9 5 SE 1027,9 -
17.10.2017 16:00:00 21,7 15,5 11 6 ESE 1028,1 -
17.10.2017 15:00:00 22,4 15,2 4 2 SW 1028,4 -
17.10.2017 14:00:00 21,7 14,0 4 2 S 1029,5 0,0
17.10.2017 13:00:00 20,5 14,5 8 4 S 1030,1 -
17.10.2017 12:00:00 18,4 15,0 4 2 ESE 1030,6 -
17.10.2017 11:00:00 15,9 14,2 2 1 W 1030,8 -
17.10.2017 10:00:00 13,5 12,0 2 1 N 1031,0 -
17.10.2017 09:00:00 9,9 8,5 2 1 WNW 1031,3 -
17.10.2017 08:00:00 7,8 6,4 4 2 W 1030,5 0,0
17.10.2017 07:00:00 7,2 5,6 4 2 WSW 1030,2 -
17.10.2017 06:00:00 8,4 6,8 0 0 N 1030,5 -
17.10.2017 05:00:00 9,4 8,0 2 1 ENE 1030,7 -
17.10.2017 04:00:00 9,1 7,5 0 0 N 1030,8 -
17.10.2017 03:00:00 9,4 7,8 2 1 NNW 1031,4 -
17.10.2017 02:00:00 9,7 8,1 4 2 NNW 1031,4 0,0
17.10.2017 01:00:00 10,2 8,6 2 1 NNW 1031,6 -
17.10.2017 00:00:00 10,7 9,1 0 0 N 1031,7 -
16.10.2017 23:00:00 11,7 10,1 0 0 N 1031,6 -
16.10.2017 22:00:00 12,4 10,8 4 2 N 1031,3 -
16.10.2017 21:00:00 12,9 11,3 2 1 ENE 1031,2 -
16.10.2017 20:00:00 14,0 12,4 2 1 S 1031,1 0,0
16.10.2017 19:00:00 16,5 13,0 4 2 ESE 1031,0 -
16.10.2017 18:00:00 19,7 14,6 5 3 SE 1030,7 -
16.10.2017 17:00:00 22,1 15,4 9 5 SE 1030,7 -
16.10.2017 16:00:00 24,7 15,0 13 7 SE 1030,7 -
16.10.2017 15:00:00 24,0 13,2 5 3 SW 1031,0 -
16.10.2017 14:00:00 23,0 13,7 4 2 SW 1031,6 0,0
16.10.2017 13:00:00 21,2 13,8 4 2 SSW 1032,1 -
16.10.2017 12:00:00 19,1 15,3 2 1 NW 1032,4 -
16.10.2017 11:00:00 16,9 15,2 4 2 NW 1032,7 -
16.10.2017 10:00:00 13,0 11,5 4 2 N 1032,5 -
16.10.2017 09:00:00 10,3 8,9 2 1 NW 1032,4 -
16.10.2017 08:00:00 7,7 6,1 2 1 W 1031,8 0,0
16.10.2017 07:00:00 7,8 6,2 2 1 N 1031,4 -
16.10.2017 06:00:00 7,8 6,2 2 1 N 1031,5 -
16.10.2017 05:00:00 8,5 6,9 0 0 N 1031,6 -
16.10.2017 04:00:00 10,0 8,4 0 0 N 1031,9 -
16.10.2017 03:00:00 10,5 8,9 2 1 NNW 1032,3 -
16.10.2017 02:00:00 10,5 8,9 2 1 WNW 1032,4 0,0
16.10.2017 01:00:00 10,6 9,0 4 2 N 1032,3 -
16.10.2017 00:00:00 11,2 9,6 2 1 N 1032,4 -
15.10.2017 23:00:00 12,1 10,5 4 2 NNE 1032,4 -
15.10.2017 22:00:00 12,1 10,5 2 1 N 1032,1 -
15.10.2017 21:00:00 13,1 11,5 0 0 N 1032,1 -
15.10.2017 20:00:00 14,3 12,1 2 1 ESE 1032,0 0,0
15.10.2017 19:00:00 16,8 13,3 4 2 S 1031,6 -
15.10.2017 18:00:00 20,4 14,7 5 3 SSE 1031,1 -
15.10.2017 17:00:00 23,5 15,7 8 4 S 1031,2 -
15.10.2017 16:00:00 23,8 13,9 5 3 SSE 1031,4 -
15.10.2017 15:00:00 23,7 14,0 4 2 SSW 1032,0 -
15.10.2017 14:00:00 22,6 14,1 4 2 SSE 1032,5 0,0
15.10.2017 13:00:00 20,6 14,6 4 2 SE 1033,1 -
15.10.2017 12:00:00 18,6 15,0 4 2 W 1033,6 -
15.10.2017 11:00:00 14,8 13,3 4 2 WNW 1033,7 -
15.10.2017 10:00:00 12,0 10,6 2 1 SW 1033,8 -
15.10.2017 09:00:00 9,8 8,4 2 1 W 1034,0 -
15.10.2017 08:00:00 9,4 8,0 0 0 N 1033,3 0,0
15.10.2017 07:00:00 9,7 8,3 0 0 N 1033,0 -
15.10.2017 06:00:00 10,4 9,0 0 0 N 1032,8 -
15.10.2017 05:00:00 11,0 9,6 0 0 N 1032,6 -
15.10.2017 04:00:00 11,0 9,6 4 2 WNW 1032,7 -
15.10.2017 03:00:00 10,7 9,1 4 2 NW 1033,1 -
15.10.2017 02:00:00 10,9 9,3 2 1 N 1033,1 0,0
15.10.2017 01:00:00 10,7 9,1 0 0 N 1033,0 -
15.10.2017 00:00:00 10,4 8,8 0 0 N 1032,9 -
14.10.2017 23:00:00 11,7 10,1 2 1 NE 1032,9 -
14.10.2017 22:00:00 12,0 10,4 4 2 N 1032,9 -
14.10.2017 21:00:00 13,2 11,6 2 1 SE 1032,7 -
14.10.2017 20:00:00 14,3 12,5 0 0 N 1032,4 0,0
14.10.2017 19:00:00 17,3 15,0 4 2 SSE 1031,9 -
14.10.2017 18:00:00 19,5 15,7 4 2 SSE 1031,5 -
14.10.2017 17:00:00 21,7 15,7 9 5 SE 1031,4 -
14.10.2017 16:00:00 22,8 14,8 4 2 W 1031,3 -
14.10.2017 15:00:00 22,8 15,1 4 2 S 1031,6 -
14.10.2017 14:00:00 21,2 14,7 4 2 SW 1032,0 0,0
14.10.2017 13:00:00 20,9 16,0 4 2 S 1032,5 -
14.10.2017 12:00:00 17,7 16,0 2 1 W 1032,9 -
14.10.2017 11:00:00 14,9 13,4 2 1 NE 1033,0 -
14.10.2017 10:00:00 11,8 10,4 2 1 W 1033,2 -
14.10.2017 09:00:00 9,5 8,1 2 1 NW 1032,7 -
14.10.2017 08:00:00 9,9 8,5 0 0 N 1032,1 0,0
14.10.2017 07:00:00 10,2 8,8 4 2 WNW 1031,9 -
14.10.2017 06:00:00 10,5 9,1 5 3 N 1031,8 -
14.10.2017 05:00:00 10,6 9,2 4 2 N 1031,7 -
14.10.2017 04:00:00 10,8 9,2 0 0 N 1031,7 -
14.10.2017 03:00:00 11,7 10,3 4 2 NE 1031,8 -
14.10.2017 02:00:00 11,8 10,2 0 0 N 1031,9 0,0
14.10.2017 01:00:00 12,1 10,5 0 0 N 1031,5 -
14.10.2017 00:00:00 12,7 11,1 0 0 N 1031,5 -
13.10.2017 23:00:00 12,3 10,7 2 1 NNW 1031,6 -
13.10.2017 22:00:00 11,6 10,0 0 0 N 1031,3 -
13.10.2017 21:00:00 13,3 11,7 0 0 N 1031,0 -
13.10.2017 20:00:00 15,0 13,3 2 1 S 1030,8 0,0
13.10.2017 19:00:00 16,5 14,8 4 2 SSE 1030,4 -
13.10.2017 18:00:00 18,8 16,3 4 2 SE 1030,2 -
13.10.2017 17:00:00 19,9 16,5 5 3 S 1030,0 -
13.10.2017 16:00:00 20,4 15,5 5 3 ESE 1030,1 -
13.10.2017 15:00:00 19,9 16,7 8 4 SSE 1030,5 -
13.10.2017 14:00:00 18,8 16,5 4 2 SSE 1031,0 0,0
13.10.2017 13:00:00 18,3 16,4 2 1 S 1031,6 -
13.10.2017 12:00:00 17,4 15,7 4 2 NW 1032,0 -
13.10.2017 11:00:00 15,6 14,1 4 2 NW 1032,1 -
13.10.2017 10:00:00 14,3 12,8 8 4 NNW 1032,0 -
13.10.2017 09:00:00 13,9 12,4 4 2 NW 1031,7 -
13.10.2017 08:00:00 13,4 11,9 8 4 NNW 1031,4 0,0
13.10.2017 07:00:00 13,4 11,9 0 0 N 1031,1 -
13.10.2017 06:00:00 12,2 10,8 0 0 N 1031,0 -
13.10.2017 05:00:00 11,6 10,2 5 3 N 1030,9 -
13.10.2017 04:00:00 11,2 9,6 4 2 N 1030,7 -
13.10.2017 03:00:00 11,0 9,4 2 1 NNE 1030,8 -
13.10.2017 02:00:00 11,2 9,6 2 1 N 1030,8 0,0
13.10.2017 01:00:00 12,3 10,7 2 1 N 1030,7 -
13.10.2017 00:00:00 13,0 11,4 4 2 N 1030,8 -
12.10.2017 23:00:00 13,0 11,4 4 2 NNW 1030,8 -
12.10.2017 22:00:00 12,8 11,2 0 0 N 1030,7 -
12.10.2017 21:00:00 13,6 12,0 0 0 N 1030,6 -
12.10.2017 20:00:00 14,8 13,1 4 2 SSE 1030,4 0,0
12.10.2017 19:00:00 16,7 14,8 5 3 SE 1029,9 -
12.10.2017 18:00:00 18,6 15,6 8 4 SSE 1029,5 -
12.10.2017 17:00:00 20,1 15,5 11 6 S 1029,3 -
12.10.2017 16:00:00 20,0 15,6 5 3 ESE 1029,3 -
12.10.2017 15:00:00 20,5 15,0 4 2 ESE 1029,1 -
12.10.2017 14:00:00 20,3 16,1 4 2 NNW 1029,5 0,0

tt = Température de l'air
td = dewpoint
ff = Vitesse du vent
dd = Direction du vent
ppp = reduced air pressure
rr = Quantités de précipitations

stations d'obs. à proximité